首页
METAR-TAF:

METAR-TAF

机场 :

Air Force Base

Langley, 弗吉尼亚州, 美国

纬度: 37-05N, 经度: 076-21W, 海拔: 3米

当前天气观测

该预报发布于27分钟前的00:56 UTC
风速7节,风向西南
温度 15°C
湿度 63%
气压 1018 hPa
能見度: 16.1公里
天空无云

METAR: KLFI 240056Z AUTO 23007KT 10SM CLR 15/08 A3005 RMK AO2 SLP183 T01500075 CHINO RWY08 $

时间: 21:23 (01:23 UTC)

预报

该预报发布于23分钟前的01:00 UTC
预报有效从24日的 01点(UTC)到 25日的 07点(UTC)
风速9节,风向西
能见度10公里或以上
天空无云
成为
从 24日的 05点(UTC)到 24日的 06点(UTC)
风速12节,风向北转西北
能见度10公里或以上
天空无云
成为
从 24日的 14点(UTC)到 24日的 15点(UTC)
风速15节,风向北转西北,有时为25节阵风
能见度10公里或以上
天空无云
成为
从 24日的 17点(UTC)到 24日的 18点(UTC)
风速10节,风向北转西北,有时为15节阵风
能见度10公里或以上
少量云层高于3000英尺

TAF: KLFI 240100Z 2401/2507 27009KT 9999 SKC QNH3002INS BECMG 2405/2406 34012KT 9999 SKC QNH3008INS BECMG 2414/2415 34015G25KT 9999 SKC QNH3012INS BECMG 2417/2418 34010G15KT 9999 FEW030 QNH3014INS TX18/2401Z TN09/2412Z

超过4000个机场的气象观测和天气预报(METAR&TAF报告)。

可查询的气象台以黄色和红色小点在地图上表示。

将鼠标移到小点上方,可查看气象台名称。

然后点击查看天气观测和预报。

如需切换地图:点击带黑十字的绿色按钮放大地图;点击带横线的绿色按钮缩小地图;或者点击绿色箭头查看邻近地区的地图。


METAR-TAF: